sensor_id;sensor_type;location;lat;lon;timestamp;P1;durP1;ratioP1;P2;durP2;ratioP2
79490;SDS011;68950;53.098;18.032;2023-04-30T00:02:11;5.00;;;2.90;;
79490;SDS011;68950;53.098;18.032;2023-04-30T00:04:37;4.40;;;2.60;;
79490;SDS011;68950;53.098;18.032;2023-04-30T00:07:04;5.00;;;2.80;;
79490;SDS011;68950;53.098;18.032;2023-04-30T00:09:31;5.40;;;2.70;;
79490;SDS011;68950;53.098;18.032;2023-04-30T00:11:57;5.90;;;2.60;;
79490;SDS011;68950;53.098;18.032;2023-04-30T00:14:24;5.20;;;2.90;;
79490;SDS011;68950;53.098;18.032;2023-04-30T00:16:51;5.90;;;3.30;;
79490;SDS011;68950;53.098;18.032;2023-04-30T00:19:17;6.40;;;3.00;;
79490;SDS011;68950;53.098;18.032;2023-04-30T00:21:44;4.70;;;2.60;;
79490;SDS011;68950;53.098;18.032;2023-04-30T00:24:11;5.60;;;3.20;;
79490;SDS011;68950;53.098;18.032;2023-04-30T00:26:37;5.10;;;2.90;;
79490;SDS011;68950;53.098;18.032;2023-04-30T00:29:04;5.10;;;2.80;;
79490;SDS011;68950;53.098;18.032;2023-04-30T00:31:31;4.90;;;2.80;;
79490;SDS011;68950;53.098;18.032;2023-04-30T00:33:57;4.50;;;2.60;;
79490;SDS011;68950;53.098;18.032;2023-04-30T00:36:24;5.00;;;2.70;;
79490;SDS011;68950;53.098;18.032;2023-04-30T00:38:50;5.30;;;3.20;;
79490;SDS011;68950;53.098;18.032;2023-04-30T00:41:17;4.90;;;2.60;;
79490;SDS011;68950;53.098;18.032;2023-04-30T00:43:44;5.30;;;2.80;;
79490;SDS011;68950;53.098;18.032;2023-04-30T00:46:12;5.30;;;2.70;;
79490;SDS011;68950;53.098;18.032;2023-04-30T00:48:39;4.60;;;2.80;;
79490;SDS011;68950;53.098;18.032;2023-04-30T00:51:05;5.20;;;2.90;;
79490;SDS011;68950;53.098;18.032;2023-04-30T00:53:33;4.60;;;2.60;;
79490;SDS011;68950;53.098;18.032;2023-04-30T00:56:01;4.50;;;2.60;;
79490;SDS011;68950;53.098;18.032;2023-04-30T00:58:28;4.80;;;2.80;;
79490;SDS011;68950;53.098;18.032;2023-04-30T01:00:55;5.20;;;2.80;;
79490;SDS011;68950;53.098;18.032;2023-04-30T01:03:22;4.50;;;2.60;;
79490;SDS011;68950;53.098;18.032;2023-04-30T01:05:49;4.50;;;2.50;;
79490;SDS011;68950;53.098;18.032;2023-04-30T01:08:15;5.00;;;2.80;;
79490;SDS011;68950;53.098;18.032;2023-04-30T01:14:39;4.60;;;2.30;;
79490;SDS011;68950;53.098;18.032;2023-04-30T01:17:08;4.80;;;2.70;;
79490;SDS011;68950;53.098;18.032;2023-04-30T01:19:45;4.50;;;2.60;;
79490;SDS011;68950;53.098;18.032;2023-04-30T01:25:09;4.60;;;2.40;;
79490;SDS011;68950;53.098;18.032;2023-04-30T01:30:50;5.40;;;2.70;;
79490;SDS011;68950;53.098;18.032;2023-04-30T01:33:17;5.00;;;2.50;;
79490;SDS011;68950;53.098;18.032;2023-04-30T01:36:11;4.70;;;2.60;;
79490;SDS011;68950;53.098;18.032;2023-04-30T01:39:05;4.50;;;2.60;;
79490;SDS011;68950;53.098;18.032;2023-04-30T01:48:12;4.30;;;2.20;;
79490;SDS011;68950;53.098;18.032;2023-04-30T01:51:22;4.00;;;2.20;;
79490;SDS011;68950;53.098;18.032;2023-04-30T01:54:05;5.10;;;2.60;;
79490;SDS011;68950;53.098;18.032;2023-04-30T01:57:12;4.80;;;2.90;;
79490;SDS011;68950;53.098;18.032;2023-04-30T01:59:41;4.70;;;2.50;;
79490;SDS011;68950;53.098;18.032;2023-04-30T02:02:09;4.70;;;2.60;;
79490;SDS011;68950;53.098;18.032;2023-04-30T02:04:35;4.60;;;2.40;;
79490;SDS011;68950;53.098;18.032;2023-04-30T02:07:02;4.30;;;2.60;;
79490;SDS011;68950;53.098;18.032;2023-04-30T02:09:29;5.50;;;2.70;;
79490;SDS011;68950;53.098;18.032;2023-04-30T02:11:55;4.70;;;2.40;;
79490;SDS011;68950;53.098;18.032;2023-04-30T02:14:24;4.90;;;2.70;;
79490;SDS011;68950;53.098;18.032;2023-04-30T02:16:51;4.60;;;2.30;;
79490;SDS011;68950;53.098;18.032;2023-04-30T02:19:17;4.80;;;2.50;;
79490;SDS011;68950;53.098;18.032;2023-04-30T02:21:44;4.60;;;2.40;;
79490;SDS011;68950;53.098;18.032;2023-04-30T02:24:10;4.60;;;2.80;;
79490;SDS011;68950;53.098;18.032;2023-04-30T02:26:37;4.30;;;2.40;;
79490;SDS011;68950;53.098;18.032;2023-04-30T02:29:03;4.40;;;2.40;;
79490;SDS011;68950;53.098;18.032;2023-04-30T02:31:30;4.40;;;2.50;;
79490;SDS011;68950;53.098;18.032;2023-04-30T02:33:57;4.20;;;2.50;;
79490;SDS011;68950;53.098;18.032;2023-04-30T02:36:23;5.00;;;2.40;;
79490;SDS011;68950;53.098;18.032;2023-04-30T02:38:50;4.30;;;2.30;;
79490;SDS011;68950;53.098;18.032;2023-04-30T02:41:16;4.60;;;2.30;;
79490;SDS011;68950;53.098;18.032;2023-04-30T02:43:43;5.50;;;2.50;;
79490;SDS011;68950;53.098;18.032;2023-04-30T02:46:10;5.50;;;2.40;;
79490;SDS011;68950;53.098;18.032;2023-04-30T02:48:36;4.80;;;2.30;;
79490;SDS011;68950;53.098;18.032;2023-04-30T02:51:03;4.50;;;2.30;;
79490;SDS011;68950;53.098;18.032;2023-04-30T02:53:30;4.60;;;2.30;;
79490;SDS011;68950;53.098;18.032;2023-04-30T02:55:56;4.60;;;2.30;;
79490;SDS011;68950;53.098;18.032;2023-04-30T02:58:24;5.10;;;2.60;;
79490;SDS011;68950;53.098;18.032;2023-04-30T03:00:51;4.50;;;2.30;;
79490;SDS011;68950;53.098;18.032;2023-04-30T03:03:18;4.50;;;2.30;;
79490;SDS011;68950;53.098;18.032;2023-04-30T03:05:44;4.60;;;2.30;;
79490;SDS011;68950;53.098;18.032;2023-04-30T03:08:11;4.40;;;2.30;;
79490;SDS011;68950;53.098;18.032;2023-04-30T03:10:38;4.30;;;2.30;;
79490;SDS011;68950;53.098;18.032;2023-04-30T03:13:04;5.50;;;2.70;;
79490;SDS011;68950;53.098;18.032;2023-04-30T03:15:32;4.80;;;2.50;;
79490;SDS011;68950;53.098;18.032;2023-04-30T03:17:58;4.30;;;2.30;;
79490;SDS011;68950;53.098;18.032;2023-04-30T03:20:25;4.70;;;2.30;;
79490;SDS011;68950;53.098;18.032;2023-04-30T03:22:52;4.60;;;2.20;;
79490;SDS011;68950;53.098;18.032;2023-04-30T03:25:18;4.40;;;2.40;;
79490;SDS011;68950;53.098;18.032;2023-04-30T03:27:45;4.40;;;2.10;;
79490;SDS011;68950;53.098;18.032;2023-04-30T03:30:11;3.70;;;2.00;;
79490;SDS011;68950;53.098;18.032;2023-04-30T03:32:38;4.20;;;2.30;;
79490;SDS011;68950;53.098;18.032;2023-04-30T03:35:05;4.80;;;2.30;;
79490;SDS011;68950;53.098;18.032;2023-04-30T03:37:33;4.20;;;2.40;;
79490;SDS011;68950;53.098;18.032;2023-04-30T03:40:00;4.60;;;2.30;;
79490;SDS011;68950;53.098;18.032;2023-04-30T03:42:26;4.60;;;2.20;;
79490;SDS011;68950;53.098;18.032;2023-04-30T03:44:53;4.80;;;2.40;;
79490;SDS011;68950;53.098;18.032;2023-04-30T03:47:19;4.60;;;2.40;;
79490;SDS011;68950;53.098;18.032;2023-04-30T03:49:46;4.30;;;2.20;;
79490;SDS011;68950;53.098;18.032;2023-04-30T03:52:20;4.70;;;2.30;;
79490;SDS011;68950;53.098;18.032;2023-04-30T03:54:47;4.30;;;2.30;;
79490;SDS011;68950;53.098;18.032;2023-04-30T03:57:14;4.60;;;2.30;;
79490;SDS011;68950;53.098;18.032;2023-04-30T03:59:40;4.60;;;2.40;;
79490;SDS011;68950;53.098;18.032;2023-04-30T04:02:07;4.30;;;2.20;;
79490;SDS011;68950;53.098;18.032;2023-04-30T04:04:34;4.50;;;2.20;;
79490;SDS011;68950;53.098;18.032;2023-04-30T04:07:00;4.10;;;2.20;;
79490;SDS011;68950;53.098;18.032;2023-04-30T04:09:28;4.40;;;2.30;;
79490;SDS011;68950;53.098;18.032;2023-04-30T04:11:55;4.10;;;2.30;;
79490;SDS011;68950;53.098;18.032;2023-04-30T04:14:23;3.90;;;2.10;;
79490;SDS011;68950;53.098;18.032;2023-04-30T04:16:49;4.00;;;2.00;;
79490;SDS011;68950;53.098;18.032;2023-04-30T04:19:16;4.50;;;2.20;;
79490;SDS011;68950;53.098;18.032;2023-04-30T04:21:42;4.30;;;2.10;;
79490;SDS011;68950;53.098;18.032;2023-04-30T04:24:09;4.30;;;2.20;;
79490;SDS011;68950;53.098;18.032;2023-04-30T04:26:36;4.20;;;2.40;;
79490;SDS011;68950;53.098;18.032;2023-04-30T04:29:03;4.30;;;2.30;;
79490;SDS011;68950;53.098;18.032;2023-04-30T04:31:30;3.90;;;2.00;;
79490;SDS011;68950;53.098;18.032;2023-04-30T04:33:59;4.80;;;2.20;;
79490;SDS011;68950;53.098;18.032;2023-04-30T04:36:27;5.00;;;2.50;;
79490;SDS011;68950;53.098;18.032;2023-04-30T04:38:56;3.70;;;1.90;;
79490;SDS011;68950;53.098;18.032;2023-04-30T04:41:31;4.30;;;2.10;;
79490;SDS011;68950;53.098;18.032;2023-04-30T04:43:59;3.80;;;2.10;;
79490;SDS011;68950;53.098;18.032;2023-04-30T04:46:27;4.40;;;2.00;;
79490;SDS011;68950;53.098;18.032;2023-04-30T04:48:54;4.30;;;2.20;;
79490;SDS011;68950;53.098;18.032;2023-04-30T04:51:21;4.60;;;2.00;;
79490;SDS011;68950;53.098;18.032;2023-04-30T04:53:48;4.50;;;2.20;;
79490;SDS011;68950;53.098;18.032;2023-04-30T04:56:14;4.10;;;2.00;;
79490;SDS011;68950;53.098;18.032;2023-04-30T04:58:43;4.30;;;2.20;;
79490;SDS011;68950;53.098;18.032;2023-04-30T05:01:10;3.80;;;2.00;;
79490;SDS011;68950;53.098;18.032;2023-04-30T05:03:36;4.20;;;1.90;;
79490;SDS011;68950;53.098;18.032;2023-04-30T05:06:04;4.00;;;1.90;;
79490;SDS011;68950;53.098;18.032;2023-04-30T05:08:31;3.90;;;2.10;;
79490;SDS011;68950;53.098;18.032;2023-04-30T05:10:57;4.30;;;2.20;;
79490;SDS011;68950;53.098;18.032;2023-04-30T05:13:24;4.60;;;2.30;;
79490;SDS011;68950;53.098;18.032;2023-04-30T05:15:52;4.20;;;2.30;;
79490;SDS011;68950;53.098;18.032;2023-04-30T05:18:19;3.90;;;1.90;;
79490;SDS011;68950;53.098;18.032;2023-04-30T05:20:46;4.20;;;2.20;;
79490;SDS011;68950;53.098;18.032;2023-04-30T05:23:12;4.00;;;1.90;;
79490;SDS011;68950;53.098;18.032;2023-04-30T05:25:39;4.30;;;2.30;;
79490;SDS011;68950;53.098;18.032;2023-04-30T05:28:05;4.10;;;2.20;;
79490;SDS011;68950;53.098;18.032;2023-04-30T05:30:32;4.20;;;2.00;;
79490;SDS011;68950;53.098;18.032;2023-04-30T05:32:59;4.70;;;2.10;;
79490;SDS011;68950;53.098;18.032;2023-04-30T05:35:26;5.30;;;2.20;;
79490;SDS011;68950;53.098;18.032;2023-04-30T05:37:52;4.00;;;1.90;;
79490;SDS011;68950;53.098;18.032;2023-04-30T05:40:19;3.90;;;1.90;;
79490;SDS011;68950;53.098;18.032;2023-04-30T05:42:46;4.20;;;2.00;;
79490;SDS011;68950;53.098;18.032;2023-04-30T05:45:12;3.80;;;1.90;;
79490;SDS011;68950;53.098;18.032;2023-04-30T05:47:42;4.00;;;2.10;;
79490;SDS011;68950;53.098;18.032;2023-04-30T05:50:09;4.40;;;2.10;;
79490;SDS011;68950;53.098;18.032;2023-04-30T05:52:35;3.80;;;1.90;;
79490;SDS011;68950;53.098;18.032;2023-04-30T05:55:02;4.00;;;1.80;;
79490;SDS011;68950;53.098;18.032;2023-04-30T05:57:29;3.80;;;1.90;;
79490;SDS011;68950;53.098;18.032;2023-04-30T05:59:56;4.80;;;2.00;;
79490;SDS011;68950;53.098;18.032;2023-04-30T06:02:22;4.00;;;1.80;;
79490;SDS011;68950;53.098;18.032;2023-04-30T06:04:49;3.70;;;1.80;;
79490;SDS011;68950;53.098;18.032;2023-04-30T06:07:16;3.90;;;1.70;;
79490;SDS011;68950;53.098;18.032;2023-04-30T06:09:42;3.90;;;1.80;;
79490;SDS011;68950;53.098;18.032;2023-04-30T06:12:09;4.80;;;1.90;;
79490;SDS011;68950;53.098;18.032;2023-04-30T06:14:35;3.40;;;1.70;;
79490;SDS011;68950;53.098;18.032;2023-04-30T06:17:02;3.70;;;1.70;;
79490;SDS011;68950;53.098;18.032;2023-04-30T06:19:29;3.80;;;1.70;;
79490;SDS011;68950;53.098;18.032;2023-04-30T06:21:55;3.70;;;1.80;;
79490;SDS011;68950;53.098;18.032;2023-04-30T06:24:22;4.30;;;1.90;;
79490;SDS011;68950;53.098;18.032;2023-04-30T06:26:48;3.80;;;1.80;;
79490;SDS011;68950;53.098;18.032;2023-04-30T06:29:15;4.20;;;2.20;;
79490;SDS011;68950;53.098;18.032;2023-04-30T06:31:41;3.70;;;1.60;;
79490;SDS011;68950;53.098;18.032;2023-04-30T06:34:08;3.70;;;1.70;;
79490;SDS011;68950;53.098;18.032;2023-04-30T06:36:35;3.70;;;1.90;;
79490;SDS011;68950;53.098;18.032;2023-04-30T06:39:01;3.90;;;1.80;;
79490;SDS011;68950;53.098;18.032;2023-04-30T06:41:28;3.80;;;1.80;;
79490;SDS011;68950;53.098;18.032;2023-04-30T06:43:55;3.60;;;1.70;;
79490;SDS011;68950;53.098;18.032;2023-04-30T06:46:21;4.00;;;1.80;;
79490;SDS011;68950;53.098;18.032;2023-04-30T06:48:48;4.00;;;1.70;;
79490;SDS011;68950;53.098;18.032;2023-04-30T06:51:14;3.80;;;1.80;;
79490;SDS011;68950;53.098;18.032;2023-04-30T06:53:41;4.20;;;1.80;;
79490;SDS011;68950;53.098;18.032;2023-04-30T06:56:07;5.10;;;2.10;;
79490;SDS011;68950;53.098;18.032;2023-04-30T06:58:34;3.70;;;1.80;;
79490;SDS011;68950;53.098;18.032;2023-04-30T07:01:00;5.00;;;1.70;;
79490;SDS011;68950;53.098;18.032;2023-04-30T07:03:27;4.20;;;1.70;;
79490;SDS011;68950;53.098;18.032;2023-04-30T07:05:54;3.30;;;1.60;;
79490;SDS011;68950;53.098;18.032;2023-04-30T07:08:21;4.00;;;1.70;;
79490;SDS011;68950;53.098;18.032;2023-04-30T07:10:48;3.90;;;1.70;;
79490;SDS011;68950;53.098;18.032;2023-04-30T07:13:14;4.10;;;1.40;;
79490;SDS011;68950;53.098;18.032;2023-04-30T07:15:41;3.30;;;1.60;;
79490;SDS011;68950;53.098;18.032;2023-04-30T07:18:08;3.90;;;1.80;;
79490;SDS011;68950;53.098;18.032;2023-04-30T07:20:35;3.90;;;1.60;;
79490;SDS011;68950;53.098;18.032;2023-04-30T07:23:02;3.70;;;1.50;;
79490;SDS011;68950;53.098;18.032;2023-04-30T07:25:28;3.70;;;1.60;;
79490;SDS011;68950;53.098;18.032;2023-04-30T07:27:55;3.40;;;1.50;;
79490;SDS011;68950;53.098;18.032;2023-04-30T07:30:21;3.40;;;1.60;;
79490;SDS011;68950;53.098;18.032;2023-04-30T07:32:48;3.40;;;1.50;;
79490;SDS011;68950;53.098;18.032;2023-04-30T07:35:15;3.30;;;1.70;;
79490;SDS011;68950;53.098;18.032;2023-04-30T07:37:42;3.50;;;1.60;;
79490;SDS011;68950;53.098;18.032;2023-04-30T07:40:10;3.50;;;1.60;;
79490;SDS011;68950;53.098;18.032;2023-04-30T07:42:39;3.70;;;1.60;;
79490;SDS011;68950;53.098;18.032;2023-04-30T07:45:10;4.40;;;1.60;;
79490;SDS011;68950;53.098;18.032;2023-04-30T07:47:38;3.70;;;1.60;;
79490;SDS011;68950;53.098;18.032;2023-04-30T07:50:06;3.30;;;1.60;;
79490;SDS011;68950;53.098;18.032;2023-04-30T07:52:33;3.80;;;1.60;;
79490;SDS011;68950;53.098;18.032;2023-04-30T07:54:59;3.90;;;1.60;;
79490;SDS011;68950;53.098;18.032;2023-04-30T07:57:26;3.50;;;1.50;;
79490;SDS011;68950;53.098;18.032;2023-04-30T07:59:53;3.50;;;1.40;;
79490;SDS011;68950;53.098;18.032;2023-04-30T08:02:19;3.50;;;1.60;;
79490;SDS011;68950;53.098;18.032;2023-04-30T08:04:46;4.40;;;1.60;;
79490;SDS011;68950;53.098;18.032;2023-04-30T08:07:14;3.90;;;1.60;;
79490;SDS011;68950;53.098;18.032;2023-04-30T08:09:41;3.70;;;1.50;;
79490;SDS011;68950;53.098;18.032;2023-04-30T08:12:09;3.20;;;1.40;;
79490;SDS011;68950;53.098;18.032;2023-04-30T08:14:36;3.40;;;1.60;;
79490;SDS011;68950;53.098;18.032;2023-04-30T08:17:02;3.70;;;1.50;;
79490;SDS011;68950;53.098;18.032;2023-04-30T08:19:29;3.50;;;1.50;;
79490;SDS011;68950;53.098;18.032;2023-04-30T08:21:56;3.70;;;1.50;;
79490;SDS011;68950;53.098;18.032;2023-04-30T08:24:24;4.40;;;1.70;;
79490;SDS011;68950;53.098;18.032;2023-04-30T08:26:50;3.40;;;1.50;;
79490;SDS011;68950;53.098;18.032;2023-04-30T08:29:17;3.30;;;1.40;;
79490;SDS011;68950;53.098;18.032;2023-04-30T08:31:43;3.40;;;1.60;;
79490;SDS011;68950;53.098;18.032;2023-04-30T08:34:10;3.60;;;1.50;;
79490;SDS011;68950;53.098;18.032;2023-04-30T08:36:37;3.40;;;1.30;;
79490;SDS011;68950;53.098;18.032;2023-04-30T08:39:04;3.80;;;1.40;;
79490;SDS011;68950;53.098;18.032;2023-04-30T08:41:31;3.70;;;1.40;;
79490;SDS011;68950;53.098;18.032;2023-04-30T08:44:01;3.50;;;1.70;;
79490;SDS011;68950;53.098;18.032;2023-04-30T08:46:32;3.10;;;1.30;;
79490;SDS011;68950;53.098;18.032;2023-04-30T08:49:01;3.70;;;1.40;;
79490;SDS011;68950;53.098;18.032;2023-04-30T08:51:30;3.80;;;1.60;;
79490;SDS011;68950;53.098;18.032;2023-04-30T08:53:58;3.80;;;1.70;;
79490;SDS011;68950;53.098;18.032;2023-04-30T08:56:25;3.40;;;1.60;;
79490;SDS011;68950;53.098;18.032;2023-04-30T08:58:51;3.40;;;1.60;;
79490;SDS011;68950;53.098;18.032;2023-04-30T09:01:18;3.70;;;1.40;;
79490;SDS011;68950;53.098;18.032;2023-04-30T09:03:45;4.00;;;1.50;;
79490;SDS011;68950;53.098;18.032;2023-04-30T09:06:16;3.10;;;1.40;;
79490;SDS011;68950;53.098;18.032;2023-04-30T09:08:47;3.50;;;1.30;;
79490;SDS011;68950;53.098;18.032;2023-04-30T09:11:22;3.40;;;1.50;;
79490;SDS011;68950;53.098;18.032;2023-04-30T09:13:50;3.40;;;1.40;;
79490;SDS011;68950;53.098;18.032;2023-04-30T09:16:19;3.30;;;1.30;;
79490;SDS011;68950;53.098;18.032;2023-04-30T09:18:47;3.70;;;1.70;;
79490;SDS011;68950;53.098;18.032;2023-04-30T09:21:14;3.50;;;1.50;;
79490;SDS011;68950;53.098;18.032;2023-04-30T09:23:55;3.20;;;1.30;;
79490;SDS011;68950;53.098;18.032;2023-04-30T09:26:37;3.50;;;1.10;;
79490;SDS011;68950;53.098;18.032;2023-04-30T09:29:04;3.20;;;1.50;;
79490;SDS011;68950;53.098;18.032;2023-04-30T09:31:37;3.10;;;1.30;;
79490;SDS011;68950;53.098;18.032;2023-04-30T09:34:04;3.30;;;1.30;;
79490;SDS011;68950;53.098;18.032;2023-04-30T09:36:33;3.10;;;1.30;;
79490;SDS011;68950;53.098;18.032;2023-04-30T09:39:11;3.40;;;1.50;;
79490;SDS011;68950;53.098;18.032;2023-04-30T09:41:39;3.10;;;1.10;;
79490;SDS011;68950;53.098;18.032;2023-04-30T09:44:06;3.50;;;1.40;;
79490;SDS011;68950;53.098;18.032;2023-04-30T09:46:34;3.10;;;1.30;;
79490;SDS011;68950;53.098;18.032;2023-04-30T09:49:05;3.20;;;1.40;;
79490;SDS011;68950;53.098;18.032;2023-04-30T09:51:32;3.30;;;1.30;;
79490;SDS011;68950;53.098;18.032;2023-04-30T09:54:01;3.20;;;1.30;;
79490;SDS011;68950;53.098;18.032;2023-04-30T09:56:30;2.80;;;1.00;;
79490;SDS011;68950;53.098;18.032;2023-04-30T09:59:01;2.80;;;1.20;;
79490;SDS011;68950;53.098;18.032;2023-04-30T10:01:31;3.10;;;1.20;;
79490;SDS011;68950;53.098;18.032;2023-04-30T10:03:59;3.30;;;1.30;;
79490;SDS011;68950;53.098;18.032;2023-04-30T10:06:26;4.60;;;1.30;;
79490;SDS011;68950;53.098;18.032;2023-04-30T10:08:56;3.40;;;1.50;;
79490;SDS011;68950;53.098;18.032;2023-04-30T10:11:27;3.60;;;1.40;;
79490;SDS011;68950;53.098;18.032;2023-04-30T10:14:03;3.20;;;1.20;;
79490;SDS011;68950;53.098;18.032;2023-04-30T10:16:54;3.20;;;1.10;;
79490;SDS011;68950;53.098;18.032;2023-04-30T10:19:30;3.50;;;1.40;;
79490;SDS011;68950;53.098;18.032;2023-04-30T10:22:01;3.40;;;1.40;;
79490;SDS011;68950;53.098;18.032;2023-04-30T10:24:29;2.90;;;1.10;;
79490;SDS011;68950;53.098;18.032;2023-04-30T10:26:56;3.20;;;1.10;;
79490;SDS011;68950;53.098;18.032;2023-04-30T10:29:23;3.00;;;1.20;;
79490;SDS011;68950;53.098;18.032;2023-04-30T10:31:51;3.40;;;1.40;;
79490;SDS011;68950;53.098;18.032;2023-04-30T10:34:34;2.70;;;1.10;;
79490;SDS011;68950;53.098;18.032;2023-04-30T10:37:23;3.40;;;1.40;;
79490;SDS011;68950;53.098;18.032;2023-04-30T10:40:04;3.50;;;1.30;;
79490;SDS011;68950;53.098;18.032;2023-04-30T10:42:35;3.10;;;1.10;;
79490;SDS011;68950;53.098;18.032;2023-04-30T10:45:02;3.10;;;1.30;;
79490;SDS011;68950;53.098;18.032;2023-04-30T10:47:29;3.50;;;1.40;;
79490;SDS011;68950;53.098;18.032;2023-04-30T10:50:03;3.20;;;1.30;;
79490;SDS011;68950;53.098;18.032;2023-04-30T10:52:31;2.80;;;0.90;;
79490;SDS011;68950;53.098;18.032;2023-04-30T10:54:57;3.00;;;1.10;;
79490;SDS011;68950;53.098;18.032;2023-04-30T10:57:28;3.00;;;1.20;;
79490;SDS011;68950;53.098;18.032;2023-04-30T11:02:43;3.20;;;1.20;;
79490;SDS011;68950;53.098;18.032;2023-04-30T11:05:17;3.60;;;1.20;;
79490;SDS011;68950;53.098;18.032;2023-04-30T11:07:57;3.00;;;1.20;;
79490;SDS011;68950;53.098;18.032;2023-04-30T11:10:26;3.00;;;1.20;;
79490;SDS011;68950;53.098;18.032;2023-04-30T11:12:57;3.30;;;1.20;;
79490;SDS011;68950;53.098;18.032;2023-04-30T11:15:26;3.40;;;1.30;;
79490;SDS011;68950;53.098;18.032;2023-04-30T11:17:57;3.80;;;1.20;;
79490;SDS011;68950;53.098;18.032;2023-04-30T11:20:25;3.70;;;1.40;;
79490;SDS011;68950;53.098;18.032;2023-04-30T11:23:15;2.90;;;1.10;;
79490;SDS011;68950;53.098;18.032;2023-04-30T11:25:45;3.10;;;1.30;;
79490;SDS011;68950;53.098;18.032;2023-04-30T11:28:18;3.50;;;1.50;;
79490;SDS011;68950;53.098;18.032;2023-04-30T11:30:56;3.20;;;1.30;;
79490;SDS011;68950;53.098;18.032;2023-04-30T11:33:26;3.00;;;1.10;;
79490;SDS011;68950;53.098;18.032;2023-04-30T11:35:55;2.70;;;1.10;;
79490;SDS011;68950;53.098;18.032;2023-04-30T11:38:28;3.30;;;1.40;;
79490;SDS011;68950;53.098;18.032;2023-04-30T11:40:56;3.10;;;1.20;;
79490;SDS011;68950;53.098;18.032;2023-04-30T11:43:28;4.10;;;1.20;;
79490;SDS011;68950;53.098;18.032;2023-04-30T11:46:04;3.10;;;1.30;;
79490;SDS011;68950;53.098;18.032;2023-04-30T11:48:34;3.50;;;1.40;;
79490;SDS011;68950;53.098;18.032;2023-04-30T11:51:25;2.80;;;1.30;;
79490;SDS011;68950;53.098;18.032;2023-04-30T11:53:52;2.90;;;1.20;;
79490;SDS011;68950;53.098;18.032;2023-04-30T11:56:20;3.50;;;1.40;;
79490;SDS011;68950;53.098;18.032;2023-04-30T11:58:48;3.20;;;1.40;;
79490;SDS011;68950;53.098;18.032;2023-04-30T12:01:16;2.90;;;1.20;;
79490;SDS011;68950;53.098;18.032;2023-04-30T12:03:45;2.90;;;1.10;;
79490;SDS011;68950;53.098;18.032;2023-04-30T12:06:27;3.30;;;1.10;;
79490;SDS011;68950;53.098;18.032;2023-04-30T12:08:55;3.20;;;1.30;;
79490;SDS011;68950;53.098;18.032;2023-04-30T12:11:25;3.40;;;1.20;;
79490;SDS011;68950;53.098;18.032;2023-04-30T12:13:55;3.00;;;1.00;;
79490;SDS011;68950;53.098;18.032;2023-04-30T12:16:46;3.20;;;1.40;;
79490;SDS011;68950;53.098;18.032;2023-04-30T12:19:17;3.20;;;1.30;;
79490;SDS011;68950;53.098;18.032;2023-04-30T12:21:47;2.90;;;1.10;;
79490;SDS011;68950;53.098;18.032;2023-04-30T12:24:15;3.00;;;1.10;;
79490;SDS011;68950;53.098;18.032;2023-04-30T12:26:44;2.90;;;1.20;;
79490;SDS011;68950;53.098;18.032;2023-04-30T12:29:15;3.50;;;1.40;;
79490;SDS011;68950;53.098;18.032;2023-04-30T12:31:44;3.10;;;1.20;;
79490;SDS011;68950;53.098;18.032;2023-04-30T12:34:14;3.50;;;1.10;;
79490;SDS011;68950;53.098;18.032;2023-04-30T12:36:41;3.20;;;1.20;;
79490;SDS011;68950;53.098;18.032;2023-04-30T12:41:44;3.30;;;1.10;;
79490;SDS011;68950;53.098;18.032;2023-04-30T12:46:40;3.50;;;1.30;;
79490;SDS011;68950;53.098;18.032;2023-04-30T12:49:08;2.80;;;1.10;;
79490;SDS011;68950;53.098;18.032;2023-04-30T12:51:36;2.90;;;1.00;;
79490;SDS011;68950;53.098;18.032;2023-04-30T12:54:06;3.00;;;1.30;;
79490;SDS011;68950;53.098;18.032;2023-04-30T12:56:33;3.20;;;1.10;;
79490;SDS011;68950;53.098;18.032;2023-04-30T12:59:00;3.10;;;1.10;;
79490;SDS011;68950;53.098;18.032;2023-04-30T13:01:27;3.40;;;1.20;;
79490;SDS011;68950;53.098;18.032;2023-04-30T13:03:54;3.10;;;1.10;;
79490;SDS011;68950;53.098;18.032;2023-04-30T13:06:21;3.00;;;1.00;;
79490;SDS011;68950;53.098;18.032;2023-04-30T13:08:48;3.10;;;1.10;;
79490;SDS011;68950;53.098;18.032;2023-04-30T13:11:15;3.90;;;1.30;;
79490;SDS011;68950;53.098;18.032;2023-04-30T13:13:42;2.90;;;1.20;;
79490;SDS011;68950;53.098;18.032;2023-04-30T13:16:08;3.30;;;1.20;;
79490;SDS011;68950;53.098;18.032;2023-04-30T13:18:35;3.40;;;1.40;;
79490;SDS011;68950;53.098;18.032;2023-04-30T13:21:02;3.60;;;1.30;;
79490;SDS011;68950;53.098;18.032;2023-04-30T13:23:29;2.70;;;1.10;;
79490;SDS011;68950;53.098;18.032;2023-04-30T13:25:55;2.80;;;1.00;;
79490;SDS011;68950;53.098;18.032;2023-04-30T13:28:22;3.00;;;1.10;;
79490;SDS011;68950;53.098;18.032;2023-04-30T13:30:49;3.50;;;1.30;;
79490;SDS011;68950;53.098;18.032;2023-04-30T13:33:15;3.30;;;1.40;;
79490;SDS011;68950;53.098;18.032;2023-04-30T13:35:42;3.60;;;1.10;;
79490;SDS011;68950;53.098;18.032;2023-04-30T13:38:08;2.60;;;1.00;;
79490;SDS011;68950;53.098;18.032;2023-04-30T13:40:35;3.70;;;1.30;;
79490;SDS011;68950;53.098;18.032;2023-04-30T13:43:02;3.20;;;1.40;;
79490;SDS011;68950;53.098;18.032;2023-04-30T13:45:29;3.10;;;1.10;;
79490;SDS011;68950;53.098;18.032;2023-04-30T13:47:55;3.00;;;1.20;;
79490;SDS011;68950;53.098;18.032;2023-04-30T13:50:22;3.10;;;1.20;;
79490;SDS011;68950;53.098;18.032;2023-04-30T13:52:49;2.80;;;1.10;;
79490;SDS011;68950;53.098;18.032;2023-04-30T13:55:16;4.20;;;1.60;;
79490;SDS011;68950;53.098;18.032;2023-04-30T13:57:42;3.10;;;1.30;;
79490;SDS011;68950;53.098;18.032;2023-04-30T14:00:10;3.30;;;1.20;;
79490;SDS011;68950;53.098;18.032;2023-04-30T14:02:37;3.00;;;1.10;;
79490;SDS011;68950;53.098;18.032;2023-04-30T14:05:04;3.50;;;1.20;;
79490;SDS011;68950;53.098;18.032;2023-04-30T14:07:31;3.10;;;1.30;;
79490;SDS011;68950;53.098;18.032;2023-04-30T14:09:58;2.90;;;1.20;;
79490;SDS011;68950;53.098;18.032;2023-04-30T14:12:25;3.00;;;1.10;;
79490;SDS011;68950;53.098;18.032;2023-04-30T14:14:51;2.80;;;1.20;;
79490;SDS011;68950;53.098;18.032;2023-04-30T14:17:18;3.20;;;1.30;;
79490;SDS011;68950;53.098;18.032;2023-04-30T14:19:45;3.10;;;1.20;;
79490;SDS011;68950;53.098;18.032;2023-04-30T14:22:12;3.40;;;1.50;;
79490;SDS011;68950;53.098;18.032;2023-04-30T14:24:38;3.30;;;1.30;;
79490;SDS011;68950;53.098;18.032;2023-04-30T14:27:05;3.30;;;1.20;;
79490;SDS011;68950;53.098;18.032;2023-04-30T14:29:32;2.90;;;1.20;;
79490;SDS011;68950;53.098;18.032;2023-04-30T14:31:58;2.90;;;1.20;;
79490;SDS011;68950;53.098;18.032;2023-04-30T14:34:26;3.30;;;1.20;;
79490;SDS011;68950;53.098;18.032;2023-04-30T14:36:53;3.00;;;1.10;;
79490;SDS011;68950;53.098;18.032;2023-04-30T14:39:20;3.40;;;1.20;;
79490;SDS011;68950;53.098;18.032;2023-04-30T14:41:46;3.10;;;1.10;;
79490;SDS011;68950;53.098;18.032;2023-04-30T14:44:13;2.80;;;1.10;;
79490;SDS011;68950;53.098;18.032;2023-04-30T14:46:40;3.10;;;1.00;;
79490;SDS011;68950;53.098;18.032;2023-04-30T14:49:06;3.10;;;1.30;;
79490;SDS011;68950;53.098;18.032;2023-04-30T14:51:33;3.10;;;1.10;;
79490;SDS011;68950;53.098;18.032;2023-04-30T14:54:00;3.00;;;1.00;;
79490;SDS011;68950;53.098;18.032;2023-04-30T14:56:27;3.00;;;1.20;;
79490;SDS011;68950;53.098;18.032;2023-04-30T14:58:54;3.10;;;1.10;;
79490;SDS011;68950;53.098;18.032;2023-04-30T15:01:21;3.00;;;1.00;;
79490;SDS011;68950;53.098;18.032;2023-04-30T15:03:48;2.80;;;1.00;;
79490;SDS011;68950;53.098;18.032;2023-04-30T15:06:14;2.70;;;1.00;;